createdAt,value
2023-11-24T00:01:57.587Z,23.40
2023-11-24T00:04:26.334Z,23.40
2023-11-24T00:06:54.131Z,23.40
2023-11-24T00:09:21.894Z,23.50
2023-11-24T00:11:49.567Z,23.50
2023-11-24T00:14:17.235Z,23.50
2023-11-24T00:16:45.819Z,23.60
2023-11-24T00:19:15.462Z,23.60
2023-11-24T00:21:48.080Z,23.60
2023-11-24T00:24:15.891Z,23.60
2023-11-24T00:26:43.641Z,23.60
2023-11-24T00:29:12.849Z,23.70
2023-11-24T00:31:41.691Z,23.70
2023-11-24T00:34:09.584Z,23.80
2023-11-24T00:36:38.938Z,23.90
2023-11-24T00:39:06.676Z,23.90
2023-11-24T00:41:34.503Z,24.00
2023-11-24T00:44:03.889Z,24.00
2023-11-24T00:46:32.033Z,24.10
2023-11-24T00:48:59.769Z,24.10
2023-11-24T00:51:28.354Z,24.20
2023-11-24T00:53:56.290Z,24.30
2023-11-24T00:56:24.534Z,24.30
2023-11-24T00:58:53.317Z,24.40
2023-11-24T01:01:20.975Z,24.40
2023-11-24T01:03:48.723Z,24.50
2023-11-24T01:06:16.375Z,24.60
2023-11-24T01:08:44.005Z,24.60
2023-11-24T01:11:11.650Z,24.60
2023-11-24T01:13:40.554Z,24.70
2023-11-24T01:16:08.364Z,24.80
2023-11-24T01:18:39.156Z,24.80
2023-11-24T01:21:09.153Z,25.00
2023-11-24T01:23:37.298Z,25.00
2023-11-24T01:26:06.647Z,25.10
2023-11-24T01:28:34.561Z,25.20
2023-11-24T01:31:02.377Z,25.20
2023-11-24T01:33:31.961Z,25.30
2023-11-24T01:36:00.398Z,25.30
2023-11-24T01:38:30.319Z,25.40
2023-11-24T01:40:58.186Z,25.40
2023-11-24T01:43:27.263Z,25.40
2023-11-24T01:45:57.356Z,25.50
2023-11-24T01:48:25.805Z,25.50
2023-11-24T01:50:53.825Z,25.50
2023-11-24T01:53:21.507Z,25.60
2023-11-24T01:55:49.721Z,25.60
2023-11-24T01:58:18.886Z,25.70
2023-11-24T02:00:47.161Z,25.80
2023-11-24T02:03:14.901Z,25.90
2023-11-24T02:05:43.263Z,25.90
2023-11-24T02:08:11.471Z,25.90
2023-11-24T02:10:39.157Z,25.90
2023-11-24T02:13:06.969Z,26.00
2023-11-24T02:15:34.581Z,26.00
2023-11-24T02:18:02.287Z,26.10
2023-11-24T02:20:34.807Z,26.20
2023-11-24T02:23:02.578Z,26.20
2023-11-24T02:25:30.276Z,26.30
2023-11-24T02:27:57.951Z,26.40
2023-11-24T02:30:25.727Z,26.40
2023-11-24T02:32:53.954Z,26.50
2023-11-24T02:35:22.940Z,26.60
2023-11-24T02:37:50.633Z,26.70
2023-11-24T02:40:22.106Z,26.80
2023-11-24T02:42:49.933Z,26.80
2023-11-24T02:45:18.321Z,26.90
2023-11-24T02:47:46.049Z,27.00
2023-11-24T02:50:13.898Z,27.00
2023-11-24T02:52:42.298Z,27.20
2023-11-24T02:55:10.261Z,27.20
2023-11-24T02:57:38.432Z,27.20
2023-11-24T03:00:07.078Z,27.30
2023-11-24T03:02:36.275Z,27.30
2023-11-24T03:05:08.225Z,27.40
2023-11-24T03:07:36.665Z,27.50
2023-11-24T03:10:04.700Z,27.50
2023-11-24T03:12:33.366Z,27.50
2023-11-24T03:15:02.179Z,27.60
2023-11-24T03:17:32.413Z,27.60
2023-11-24T03:20:00.526Z,27.70
2023-11-24T03:22:28.740Z,27.70
2023-11-24T03:24:56.539Z,27.80
2023-11-24T03:27:24.297Z,27.80
2023-11-24T03:29:52.193Z,27.90
2023-11-24T03:32:19.851Z,27.90
2023-11-24T03:34:48.732Z,27.90
2023-11-24T03:37:16.416Z,28.00
2023-11-24T03:39:44.196Z,28.00
2023-11-24T03:42:12.264Z,28.00
2023-11-24T03:44:40.747Z,28.00
2023-11-24T03:47:08.469Z,28.00
2023-11-24T03:49:36.608Z,28.00
2023-11-24T03:52:05.974Z,28.00
2023-11-24T03:54:34.518Z,28.10
2023-11-24T03:57:02.436Z,28.10
2023-11-24T03:59:30.468Z,28.20
2023-11-24T04:01:58.203Z,28.20
2023-11-24T04:04:25.889Z,28.30
2023-11-24T04:06:54.577Z,28.30
2023-11-24T04:09:22.378Z,28.30
2023-11-24T04:11:50.319Z,28.30
2023-11-24T04:14:18.335Z,28.40
2023-11-24T04:16:46.197Z,28.40
2023-11-24T04:19:15.067Z,28.50
2023-11-24T04:21:42.861Z,28.50
2023-11-24T04:24:12.548Z,28.60
2023-11-24T04:26:40.787Z,28.70
2023-11-24T04:29:08.711Z,28.80
2023-11-24T04:31:36.507Z,28.90
2023-11-24T04:34:05.514Z,29.00
2023-11-24T04:36:33.735Z,29.10
2023-11-24T04:39:01.832Z,29.10
2023-11-24T04:41:30.040Z,29.10
2023-11-24T04:43:57.715Z,29.10
2023-11-24T04:46:26.443Z,29.10
2023-11-24T04:48:58.689Z,29.10
2023-11-24T04:51:29.947Z,29.20
2023-11-24T04:53:59.246Z,29.20
2023-11-24T04:56:27.781Z,29.30
2023-11-24T04:58:57.019Z,29.30
2023-11-24T05:01:30.305Z,29.40
2023-11-24T05:04:01.484Z,29.30
2023-11-24T05:06:29.602Z,29.30
2023-11-24T05:08:58.096Z,29.40
2023-11-24T05:11:26.509Z,29.30
2023-11-24T05:13:55.315Z,29.30
2023-11-24T05:16:24.249Z,29.30
2023-11-24T05:18:54.373Z,29.30
2023-11-24T05:21:22.880Z,29.40
2023-11-24T05:23:52.014Z,29.40
2023-11-24T05:26:19.680Z,29.50
2023-11-24T05:28:47.331Z,29.50
2023-11-24T05:31:15.078Z,29.60
2023-11-24T05:33:43.653Z,29.70
2023-11-24T05:36:12.169Z,29.70
2023-11-24T05:38:41.746Z,29.70
2023-11-24T05:41:09.494Z,29.70
2023-11-24T05:43:37.176Z,29.60
2023-11-24T05:46:07.765Z,29.70
2023-11-24T05:48:35.583Z,29.60
2023-11-24T05:51:03.913Z,29.70
2023-11-24T05:53:31.521Z,29.70
2023-11-24T05:55:59.146Z,29.70
2023-11-24T05:58:27.545Z,29.80
2023-11-24T06:00:56.738Z,29.80
2023-11-24T06:06:01.040Z,29.90
2023-11-24T06:08:28.938Z,29.90
2023-11-24T06:10:56.590Z,29.80
2023-11-24T06:13:24.402Z,29.90
2023-11-24T06:15:58.979Z,29.90
2023-11-24T06:18:27.636Z,29.90
2023-11-24T06:20:57.603Z,29.90
2023-11-24T06:23:25.570Z,29.90
2023-11-24T06:25:54.269Z,29.90
2023-11-24T06:28:26.339Z,30.00
2023-11-24T06:30:54.075Z,30.00
2023-11-24T06:33:21.770Z,30.00
2023-11-24T06:35:51.886Z,30.00
2023-11-24T06:38:19.577Z,30.00
2023-11-24T06:41:03.872Z,30.00
2023-11-24T06:43:31.602Z,30.00
2023-11-24T06:45:59.328Z,30.00
2023-11-24T06:48:29.026Z,30.00
2023-11-24T06:50:57.927Z,30.00
2023-11-24T06:53:25.716Z,30.10
2023-11-24T06:55:53.394Z,30.10
2023-11-24T06:58:21.215Z,30.10
2023-11-24T07:00:51.920Z,30.10
2023-11-24T07:03:19.723Z,30.10
2023-11-24T07:05:48.763Z,30.10
2023-11-24T07:08:18.274Z,30.10
2023-11-24T07:10:46.045Z,30.20
2023-11-24T07:13:14.081Z,30.20
2023-11-24T07:15:41.737Z,30.20
2023-11-24T07:18:09.600Z,30.30
2023-11-24T07:20:37.294Z,30.30
2023-11-24T07:23:05.722Z,30.30
2023-11-24T07:25:33.557Z,30.30
2023-11-24T07:28:01.680Z,30.30
2023-11-24T07:30:29.308Z,30.30
2023-11-24T07:32:57.038Z,30.30
2023-11-24T07:35:24.663Z,30.30
2023-11-24T07:37:52.303Z,30.30
2023-11-24T07:40:20.069Z,30.40
2023-11-24T07:42:48.263Z,30.40
2023-11-24T07:45:16.963Z,30.40
2023-11-24T07:47:45.829Z,30.30
2023-11-24T07:50:13.679Z,30.40
2023-11-24T07:52:42.600Z,30.30
2023-11-24T07:55:10.403Z,30.20
2023-11-24T07:57:38.461Z,30.20
2023-11-24T08:00:10.608Z,30.10
2023-11-24T08:02:38.677Z,30.10
2023-11-24T08:05:07.680Z,30.10
2023-11-24T08:07:35.860Z,30.10
2023-11-24T08:10:04.759Z,30.10
2023-11-24T08:12:34.471Z,30.10
2023-11-24T08:15:02.144Z,30.10
2023-11-24T08:17:29.755Z,30.10
2023-11-24T08:19:59.438Z,30.10
2023-11-24T08:22:29.463Z,30.10
2023-11-24T08:24:57.385Z,30.10
2023-11-24T08:27:25.623Z,30.10
2023-11-24T08:29:53.416Z,30.10
2023-11-24T08:32:21.711Z,30.00
2023-11-24T08:34:50.289Z,29.90
2023-11-24T08:37:18.004Z,29.90
2023-11-24T08:39:45.678Z,29.80
2023-11-24T08:42:14.078Z,29.80
2023-11-24T08:44:41.841Z,29.70
2023-11-24T08:47:09.892Z,29.80
2023-11-24T08:49:37.633Z,29.70
2023-11-24T08:52:06.148Z,29.80
2023-11-24T08:54:33.968Z,29.70
2023-11-24T08:57:01.740Z,29.70
2023-11-24T08:59:30.808Z,29.70
2023-11-24T09:01:59.688Z,29.70
2023-11-24T09:04:30.127Z,29.70
2023-11-24T09:06:58.366Z,29.60
2023-11-24T09:09:26.344Z,29.50
2023-11-24T09:11:54.302Z,29.50
2023-11-24T09:14:21.953Z,29.50
2023-11-24T09:16:58.057Z,29.40
2023-11-24T09:19:25.800Z,29.40
2023-11-24T09:21:53.963Z,29.40
2023-11-24T09:24:22.229Z,29.40
2023-11-24T09:26:50.118Z,29.30
2023-11-24T09:29:17.955Z,29.30
2023-11-24T09:31:45.751Z,29.20
2023-11-24T09:34:17.406Z,29.20
2023-11-24T09:36:47.087Z,29.20
2023-11-24T09:39:22.936Z,29.10
2023-11-24T09:41:51.014Z,29.10
2023-11-24T09:44:18.710Z,29.10
2023-11-24T09:46:51.963Z,29.10
2023-11-24T09:49:22.696Z,29.10
2023-11-24T09:51:50.520Z,29.00
2023-11-24T09:54:23.156Z,29.00
2023-11-24T09:56:50.956Z,28.90
2023-11-24T09:59:20.909Z,28.90
2023-11-24T10:01:50.355Z,28.80
2023-11-24T10:04:18.069Z,28.80
2023-11-24T10:06:46.837Z,28.80
2023-11-24T10:09:23.106Z,28.80
2023-11-24T10:11:50.702Z,28.80
2023-11-24T10:14:18.316Z,28.80
2023-11-24T10:16:45.985Z,28.70
2023-11-24T10:19:20.751Z,28.70
2023-11-24T10:21:53.238Z,28.70
2023-11-24T10:24:23.013Z,28.60
2023-11-24T10:26:51.569Z,28.60
2023-11-24T10:29:20.824Z,28.60
2023-11-24T10:31:48.494Z,28.50
2023-11-24T10:34:17.550Z,28.50
2023-11-24T10:36:47.107Z,28.40
2023-11-24T10:39:16.952Z,28.40
2023-11-24T10:41:48.190Z,28.40
2023-11-24T10:44:18.866Z,28.40
2023-11-24T10:46:49.801Z,28.40
2023-11-24T10:49:32.873Z,28.30
2023-11-24T10:52:08.696Z,28.30
2023-11-24T10:54:37.839Z,28.20
2023-11-24T10:57:07.024Z,28.20
2023-11-24T10:59:40.223Z,28.20
2023-11-24T11:02:13.025Z,28.20
2023-11-24T11:04:47.389Z,28.10
2023-11-24T11:07:28.876Z,28.10
2023-11-24T11:10:03.890Z,28.10
2023-11-24T11:12:38.987Z,28.10
2023-11-24T11:15:08.331Z,28.00
2023-11-24T11:17:35.952Z,28.00
2023-11-24T11:20:10.753Z,28.00
2023-11-24T11:22:39.425Z,27.90
2023-11-24T11:25:16.260Z,27.90
2023-11-24T11:27:49.689Z,27.90
2023-11-24T11:30:17.598Z,27.80
2023-11-24T11:32:45.208Z,27.90
2023-11-24T11:35:13.393Z,27.80
2023-11-24T11:37:42.831Z,27.80
2023-11-24T11:40:14.151Z,27.70
2023-11-24T11:42:55.128Z,27.70
2023-11-24T11:45:31.552Z,27.70
2023-11-24T11:48:01.205Z,27.70
2023-11-24T11:50:29.693Z,27.70
2023-11-24T11:53:02.172Z,27.60
2023-11-24T11:55:30.525Z,27.60
2023-11-24T11:58:02.049Z,27.60
2023-11-24T12:00:33.160Z,27.60
2023-11-24T12:03:01.159Z,27.60
2023-11-24T12:05:28.858Z,27.50
2023-11-24T12:07:59.584Z,27.50
2023-11-24T12:10:31.662Z,27.50
2023-11-24T12:13:05.771Z,27.50
2023-11-24T12:15:35.882Z,27.50
2023-11-24T12:18:03.953Z,27.40
2023-11-24T12:20:32.866Z,27.40
2023-11-24T12:23:01.474Z,27.40
2023-11-24T12:25:29.188Z,27.40
2023-11-24T12:28:00.666Z,27.30
2023-11-24T12:30:30.176Z,27.30
2023-11-24T12:32:58.246Z,27.30
2023-11-24T12:35:28.998Z,27.30
2023-11-24T12:37:57.683Z,27.30
2023-11-24T12:40:29.136Z,27.20
2023-11-24T12:43:02.807Z,27.20
2023-11-24T12:45:31.184Z,27.20
2023-11-24T12:48:07.073Z,27.20
2023-11-24T12:50:34.734Z,27.10
2023-11-24T12:53:02.396Z,27.10
2023-11-24T12:55:30.007Z,27.10
2023-11-24T12:57:57.819Z,27.00
2023-11-24T13:00:27.658Z,27.00
2023-11-24T13:02:57.250Z,27.00
2023-11-24T13:05:27.130Z,27.00
2023-11-24T13:07:54.758Z,26.90
2023-11-24T13:10:22.523Z,26.90
2023-11-24T13:12:50.569Z,26.90
2023-11-24T13:15:18.424Z,26.80
2023-11-24T13:17:46.154Z,26.80
2023-11-24T13:20:15.068Z,26.80
2023-11-24T13:22:43.864Z,26.80
2023-11-24T13:25:12.387Z,26.70
2023-11-24T13:27:40.320Z,26.70
2023-11-24T13:30:11.832Z,26.70
2023-11-24T13:32:40.883Z,26.70
2023-11-24T13:35:12.136Z,26.60
2023-11-24T13:37:40.382Z,26.60
2023-11-24T13:40:10.943Z,26.60
2023-11-24T13:42:38.891Z,26.60
2023-11-24T13:45:07.930Z,26.50
2023-11-24T13:47:36.871Z,26.50
2023-11-24T13:50:05.779Z,26.50
2023-11-24T13:52:36.381Z,26.40
2023-11-24T13:55:07.598Z,26.40
2023-11-24T13:57:37.180Z,26.40
2023-11-24T14:00:08.340Z,26.40
2023-11-24T14:02:37.647Z,26.40
2023-11-24T14:05:06.177Z,26.30
2023-11-24T14:07:33.870Z,26.30
2023-11-24T14:10:01.556Z,26.20
2023-11-24T14:12:30.542Z,26.30
2023-11-24T14:15:01.746Z,26.20
2023-11-24T14:17:31.103Z,26.20
2023-11-24T14:19:58.855Z,26.20
2023-11-24T14:22:26.613Z,26.20
2023-11-24T14:24:57.445Z,26.20
2023-11-24T14:27:25.644Z,26.20
2023-11-24T14:29:53.202Z,26.20
2023-11-24T14:32:20.964Z,26.10
2023-11-24T14:34:48.592Z,26.10
2023-11-24T14:37:19.042Z,26.10
2023-11-24T14:39:47.961Z,26.00
2023-11-24T14:42:16.365Z,26.00
2023-11-24T14:44:44.128Z,26.00
2023-11-24T14:47:13.573Z,26.00
2023-11-24T14:49:41.848Z,26.00
2023-11-24T14:52:09.504Z,26.00
2023-11-24T14:54:38.908Z,26.00
2023-11-24T14:57:07.276Z,25.90
2023-11-24T14:59:34.934Z,25.90
2023-11-24T15:02:09.098Z,25.90
2023-11-24T15:04:37.408Z,25.90
2023-11-24T15:07:09.038Z,25.90
2023-11-24T15:09:37.340Z,25.90
2023-11-24T15:12:06.465Z,25.80
2023-11-24T15:14:34.806Z,25.80
2023-11-24T15:17:06.336Z,25.80
2023-11-24T15:19:40.314Z,25.80
2023-11-24T15:22:10.992Z,25.80
2023-11-24T15:24:39.983Z,25.70
2023-11-24T15:27:09.262Z,25.80
2023-11-24T15:29:39.057Z,25.70
2023-11-24T15:32:14.604Z,25.70
2023-11-24T15:34:42.184Z,25.70
2023-11-24T15:37:10.297Z,25.70
2023-11-24T15:39:44.773Z,25.60
2023-11-24T15:42:17.026Z,25.70
2023-11-24T15:44:46.163Z,25.60
2023-11-24T15:47:13.841Z,25.60
2023-11-24T15:49:42.977Z,25.50
2023-11-24T15:52:13.820Z,25.60
2023-11-24T15:54:42.060Z,25.50
2023-11-24T15:57:13.429Z,25.50
2023-11-24T15:59:47.240Z,25.50
2023-11-24T16:02:24.154Z,25.50
2023-11-24T16:04:57.800Z,25.40
2023-11-24T16:07:33.293Z,25.40
2023-11-24T16:10:02.083Z,25.40
2023-11-24T16:12:34.884Z,25.30
2023-11-24T16:15:02.758Z,25.30
2023-11-24T16:17:30.406Z,25.30
2023-11-24T16:19:59.990Z,25.20
2023-11-24T16:22:27.668Z,25.20
2023-11-24T16:24:55.234Z,25.20
2023-11-24T16:27:23.740Z,25.10
2023-11-24T16:29:51.423Z,25.10
2023-11-24T16:32:20.684Z,25.10
2023-11-24T16:34:48.376Z,25.00
2023-11-24T16:37:17.454Z,25.10
2023-11-24T16:39:45.073Z,25.00
2023-11-24T16:42:12.678Z,25.00
2023-11-24T16:44:40.309Z,25.00
2023-11-24T16:47:08.656Z,25.00
2023-11-24T16:49:36.357Z,24.90
2023-11-24T16:52:04.918Z,24.90
2023-11-24T16:54:32.527Z,24.90
2023-11-24T16:57:00.079Z,24.90
2023-11-24T16:59:27.700Z,24.80
2023-11-24T17:01:56.158Z,24.80
2023-11-24T17:04:28.492Z,24.80
2023-11-24T17:06:56.556Z,24.80
2023-11-24T17:09:24.565Z,24.70
2023-11-24T17:11:52.667Z,24.70
2023-11-24T17:14:20.311Z,24.70
2023-11-24T17:16:47.976Z,24.60
2023-11-24T17:19:17.467Z,24.60
2023-11-24T17:21:49.653Z,24.60
2023-11-24T17:24:17.215Z,24.60
2023-11-24T17:26:45.977Z,24.50
2023-11-24T17:29:16.476Z,24.60
2023-11-24T17:31:44.597Z,24.50
2023-11-24T17:34:17.997Z,24.50
2023-11-24T17:36:49.308Z,24.50
2023-11-24T17:39:19.107Z,24.50
2023-11-24T17:41:47.645Z,24.50
2023-11-24T17:44:17.480Z,24.40
2023-11-24T17:46:47.760Z,24.50
2023-11-24T17:49:15.471Z,24.40
2023-11-24T17:51:43.324Z,24.40
2023-11-24T17:54:11.180Z,24.40
2023-11-24T17:56:38.979Z,24.40
2023-11-24T17:59:07.287Z,24.30
2023-11-24T18:01:36.233Z,24.40
2023-11-24T18:04:03.995Z,24.30
2023-11-24T18:06:31.739Z,24.30
2023-11-24T18:08:59.305Z,24.30
2023-11-24T18:11:33.077Z,24.30
2023-11-24T18:14:05.733Z,24.30
2023-11-24T18:16:33.427Z,24.30
2023-11-24T18:19:01.059Z,24.30
2023-11-24T18:21:28.729Z,24.30
2023-11-24T18:23:56.500Z,24.30
2023-11-24T18:26:24.077Z,24.30
2023-11-24T18:28:52.477Z,24.30
2023-11-24T18:31:21.098Z,24.20
2023-11-24T18:33:49.252Z,24.20
2023-11-24T18:36:17.182Z,24.10
2023-11-24T18:38:44.814Z,24.10
2023-11-24T18:41:13.019Z,24.10
2023-11-24T18:43:41.191Z,24.00
2023-11-24T18:46:09.351Z,24.00
2023-11-24T18:48:37.224Z,23.90
2023-11-24T18:51:04.932Z,23.90
2023-11-24T18:53:32.574Z,23.90
2023-11-24T18:56:00.328Z,23.90
2023-11-24T18:58:27.974Z,23.80
2023-11-24T19:00:55.648Z,23.70
2023-11-24T19:03:24.178Z,23.70
2023-11-24T19:05:52.712Z,23.70
2023-11-24T19:08:20.300Z,23.80
2023-11-24T19:10:49.093Z,23.80
2023-11-24T19:13:17.784Z,23.80
2023-11-24T19:15:46.890Z,23.80
2023-11-24T19:18:15.194Z,23.70
2023-11-24T19:20:42.871Z,23.80
2023-11-24T19:23:10.732Z,23.80
2023-11-24T19:25:38.438Z,23.80
2023-11-24T19:28:06.214Z,23.80
2023-11-24T19:30:35.299Z,23.80
2023-11-24T19:33:03.202Z,23.70
2023-11-24T19:35:30.985Z,23.80
2023-11-24T19:37:58.698Z,23.70
2023-11-24T19:40:26.306Z,23.70
2023-11-24T19:42:54.029Z,23.70
2023-11-24T19:45:21.653Z,23.60
2023-11-24T19:47:49.592Z,23.60
2023-11-24T19:50:17.217Z,23.60
2023-11-24T19:52:45.720Z,23.60
2023-11-24T19:55:13.438Z,23.50
2023-11-24T19:57:40.999Z,23.50
2023-11-24T20:00:10.842Z,23.50
2023-11-24T20:02:38.946Z,23.40
2023-11-24T20:05:07.503Z,23.40
2023-11-24T20:07:35.245Z,23.40
2023-11-24T20:10:02.931Z,23.30
2023-11-24T20:12:30.580Z,23.30
2023-11-24T20:14:58.459Z,23.30
2023-11-24T20:17:27.631Z,23.30
2023-11-24T20:19:55.256Z,23.30
2023-11-24T20:22:23.010Z,23.30
2023-11-24T20:24:50.687Z,23.20
2023-11-24T20:27:18.229Z,23.20
2023-11-24T20:29:45.806Z,23.20
2023-11-24T20:32:13.421Z,23.20
2023-11-24T20:34:41.272Z,23.20
2023-11-24T20:37:09.222Z,23.20
2023-11-24T20:39:37.289Z,23.20
2023-11-24T20:42:05.312Z,23.10
2023-11-24T20:44:34.613Z,23.10
2023-11-24T20:47:02.527Z,23.10
2023-11-24T20:49:30.348Z,23.00
2023-11-24T20:51:58.605Z,23.00
2023-11-24T20:54:26.342Z,23.00
2023-11-24T20:56:54.033Z,22.90
2023-11-24T20:59:22.674Z,22.90
2023-11-24T21:01:51.278Z,22.90
2023-11-24T21:04:19.063Z,22.90
2023-11-24T21:06:47.336Z,22.90
2023-11-24T21:09:16.763Z,23.00
2023-11-24T21:11:44.492Z,23.00
2023-11-24T21:14:12.266Z,23.00
2023-11-24T21:16:39.988Z,22.90
2023-11-24T21:19:08.027Z,22.90
2023-11-24T21:21:35.701Z,22.90
2023-11-24T21:24:03.368Z,22.90
2023-11-24T21:26:31.815Z,22.90
2023-11-24T21:28:59.446Z,22.90
2023-11-24T21:31:27.064Z,22.90
2023-11-24T21:33:56.499Z,22.90
2023-11-24T21:36:24.153Z,22.90
2023-11-24T21:38:51.715Z,22.90
2023-11-24T21:41:21.312Z,22.80
2023-11-24T21:43:50.079Z,22.90
2023-11-24T21:46:24.073Z,22.80
2023-11-24T21:48:51.752Z,22.80
2023-11-24T21:51:19.460Z,22.80
2023-11-24T21:53:47.180Z,22.70
2023-11-24T21:56:23.816Z,22.70
2023-11-24T21:58:52.022Z,22.70
2023-11-24T22:01:22.459Z,22.60
2023-11-24T22:03:50.328Z,22.60
2023-11-24T22:06:23.002Z,22.60
2023-11-24T22:08:50.552Z,22.50
2023-11-24T22:11:18.875Z,22.50
2023-11-24T22:13:46.476Z,22.40
2023-11-24T22:16:14.193Z,22.40
2023-11-24T22:18:41.846Z,22.40
2023-11-24T22:21:09.482Z,22.40
2023-11-24T22:23:37.077Z,22.40
2023-11-24T22:26:04.762Z,22.30
2023-11-24T22:28:32.438Z,22.30
2023-11-24T22:31:00.240Z,22.20
2023-11-24T22:33:27.867Z,22.20
2023-11-24T22:35:55.461Z,22.20
2023-11-24T22:38:23.072Z,22.10
2023-11-24T22:40:50.609Z,22.20
2023-11-24T22:43:18.977Z,22.10
2023-11-24T22:45:47.429Z,22.10
2023-11-24T22:48:15.142Z,22.10
2023-11-24T22:50:42.785Z,22.10
2023-11-24T22:53:10.414Z,22.00
2023-11-24T22:55:38.699Z,22.00
2023-11-24T22:58:06.572Z,22.00
2023-11-24T23:00:37.722Z,22.00
2023-11-24T23:03:05.746Z,21.90
2023-11-24T23:05:33.508Z,21.90
2023-11-24T23:08:01.147Z,21.90
2023-11-24T23:10:32.743Z,21.80
2023-11-24T23:13:02.738Z,21.80
2023-11-24T23:15:32.657Z,21.80
2023-11-24T23:18:01.533Z,21.80
2023-11-24T23:20:29.720Z,21.80
2023-11-24T23:22:57.340Z,21.80
2023-11-24T23:25:25.032Z,21.80
2023-11-24T23:27:52.724Z,21.80
2023-11-24T23:30:20.262Z,21.80
2023-11-24T23:32:47.912Z,21.80
2023-11-24T23:35:15.577Z,21.70
2023-11-24T23:37:45.556Z,21.70
2023-11-24T23:40:15.555Z,21.70
2023-11-24T23:42:47.748Z,21.70
2023-11-24T23:45:15.569Z,21.70
2023-11-24T23:47:44.048Z,21.70
2023-11-24T23:50:12.392Z,21.70
2023-11-24T23:52:40.631Z,21.70
2023-11-24T23:55:09.240Z,21.70
2023-11-24T23:57:38.852Z,21.70
